Time;durP1;ratioP1;P1;durP2;ratioP2;P2;SDS_P1;SDS_P2;PMS_P1;PMS_P2;Temp;Humidity;BMP_temperature;BMP_pressure;BME280_temperature;BME280_humidity;BME280_pressure;Samples;Min_cycle;Max_cycle;Signal;HPM_P1;HPM_P2
2021/07/07 00:00:09;;;;;;;5.88;2.17;;;14.40;99.90;;;;;;5116467;28;20043;-71
2021/07/07 00:02:35;;;;;;;6.18;2.40;;;14.40;99.90;;;;;;5117122;28;20395;-71
2021/07/07 00:05:00;;;;;;;8.10;2.97;;;14.30;99.90;;;;;;5116580;28;20035;-71
2021/07/07 00:07:27;;;;;;;8.98;2.50;;;14.30;99.90;;;;;;5116379;28;20484;-71
2021/07/07 00:09:52;;;;;;;8.85;2.28;;;14.30;99.90;;;;;;5115393;28;20092;-70
2021/07/07 00:12:18;;;;;;;4.65;2.35;;;14.30;99.90;;;;;;5116340;28;20142;-71
2021/07/07 00:14:44;;;;;;;7.60;2.30;;;14.30;99.90;;;;;;5116237;28;20115;-71
2021/07/07 00:17:10;;;;;;;5.35;2.17;;;14.20;99.90;;;;;;5116300;27;20159;-71
2021/07/07 00:19:36;;;;;;;5.13;2.17;;;14.20;99.90;;;;;;5115800;28;20394;-71
2021/07/07 00:22:01;;;;;;;5.32;2.15;;;14.20;99.90;;;;;;5115962;28;20110;-71
2021/07/07 00:24:27;;;;;;;5.88;2.53;;;14.20;99.90;;;;;;5116673;28;20051;-71
2021/07/07 00:26:53;;;;;;;6.43;2.90;;;14.20;99.90;;;;;;5115969;28;20039;-71
2021/07/07 00:29:19;;;;;;;5.47;2.35;;;14.20;99.90;;;;;;5114439;28;20035;-71
2021/07/07 00:31:45;;;;;;;7.03;2.17;;;14.20;99.90;;;;;;5116203;28;20039;-71
2021/07/07 00:34:10;;;;;;;5.50;2.20;;;14.20;99.90;;;;;;5116393;27;20046;-71
2021/07/07 00:36:37;;;;;;;8.73;2.30;;;14.20;99.90;;;;;;5115754;28;20490;-71
2021/07/07 00:39:04;;;;;;;2.75;2.05;;;14.10;99.90;;;;;;5115569;28;20076;-71
2021/07/07 00:41:30;;;;;;;9.40;2.58;;;14.10;99.90;;;;;;5115724;28;20063;-71
2021/07/07 00:43:55;;;;;;;4.60;2.50;;;14.00;99.90;;;;;;5116272;28;20067;-71
2021/07/07 00:46:21;;;;;;;3.10;1.98;;;14.00;99.90;;;;;;5115578;28;20505;-71
2021/07/07 00:48:47;;;;;;;7.13;2.50;;;14.00;99.90;;;;;;5115623;28;20537;-71
2021/07/07 00:51:14;;;;;;;4.70;2.92;;;14.00;99.90;;;;;;5115745;28;20044;-71
2021/07/07 00:53:42;;;;;;;6.22;2.55;;;14.00;99.90;;;;;;5115424;28;20050;-71
2021/07/07 00:56:10;;;;;;;4.53;2.22;;;14.00;99.90;;;;;;5115359;28;20110;-71
2021/07/07 00:58:37;;;;;;;5.50;2.83;;;14.00;99.90;;;;;;5115127;28;20094;-71
2021/07/07 01:01:05;;;;;;;6.88;2.63;;;14.00;99.90;;;;;;5115129;28;20042;-71
2021/07/07 01:03:31;;;;;;;6.78;2.97;;;14.00;99.90;;;;;;5115296;28;20036;-71
2021/07/07 01:05:57;;;;;;;6.53;2.58;;;14.00;99.90;;;;;;5115867;28;20036;-71
2021/07/07 01:08:22;;;;;;;6.25;2.70;;;14.00;99.90;;;;;;5115286;28;20127;-71
2021/07/07 01:10:48;;;;;;;7.63;2.97;;;13.90;99.90;;;;;;5114980;28;20043;-70
2021/07/07 01:13:14;;;;;;;4.32;2.63;;;13.90;99.90;;;;;;5115414;28;20480;-71
2021/07/07 01:15:45;;;;;;;4.05;2.40;;;13.90;99.90;;;;;;5115497;28;20038;-71
2021/07/07 01:18:11;;;;;;;4.35;2.63;;;13.90;99.90;;;;;;5115141;28;20093;-71
2021/07/07 01:20:37;;;;;;;4.47;2.53;;;13.80;99.90;;;;;;5114106;28;20437;-71
2021/07/07 01:23:03;;;;;;;5.72;2.50;;;13.70;99.90;;;;;;5114033;28;20472;-71
2021/07/07 01:25:29;;;;;;;11.10;3.15;;;13.80;99.90;;;;;;5115230;28;20053;-71
2021/07/07 01:28:00;;;;;;;8.18;3.05;;;13.80;99.90;;;;;;5115248;28;20043;-71
2021/07/07 01:30:27;;;;;;;4.72;2.50;;;13.70;99.90;;;;;;5114857;28;20055;-71
2021/07/07 01:32:53;;;;;;;3.90;2.80;;;13.60;99.90;;;;;;5115349;28;20038;-71
2021/07/07 01:35:21;;;;;;;6.25;2.30;;;13.60;99.90;;;;;;5115009;28;20039;-71
2021/07/07 01:37:48;;;;;;;4.45;2.38;;;13.60;99.90;;;;;;5114606;28;20088;-71
2021/07/07 01:40:18;;;;;;;8.07;2.60;;;13.60;99.90;;;;;;5114077;28;20116;-71
2021/07/07 01:42:44;;;;;;;6.53;2.50;;;13.60;99.90;;;;;;5114966;28;20480;-71
2021/07/07 01:45:11;;;;;;;7.13;2.63;;;13.50;99.90;;;;;;5114429;28;20173;-71
2021/07/07 01:47:37;;;;;;;4.25;2.47;;;13.60;99.90;;;;;;5114304;28;20036;-71
2021/07/07 01:50:05;;;;;;;6.43;2.78;;;13.70;99.90;;;;;;5114423;28;20048;-71
2021/07/07 01:52:30;;;;;;;5.82;2.70;;;13.70;99.90;;;;;;5114338;28;20063;-71
2021/07/07 01:54:56;;;;;;;7.20;3.10;;;13.70;99.90;;;;;;5114362;28;20086;-71
2021/07/07 01:57:22;;;;;;;6.07;2.80;;;13.70;99.90;;;;;;5114439;28;20420;-71
2021/07/07 01:59:47;;;;;;;5.80;3.05;;;13.70;99.90;;;;;;5113938;28;20429;-71
2021/07/07 02:02:14;;;;;;;8.48;3.25;;;13.70;99.90;;;;;;5114624;28;20497;-71
2021/07/07 02:04:40;;;;;;;5.95;3.17;;;13.80;99.90;;;;;;5114491;28;20036;-71
2021/07/07 02:07:05;;;;;;;6.25;2.83;;;13.80;99.90;;;;;;5114282;28;20558;-71
2021/07/07 02:09:31;;;;;;;4.15;2.90;;;13.80;99.90;;;;;;5113831;28;20040;-70
2021/07/07 02:11:57;;;;;;;6.75;2.65;;;13.80;99.90;;;;;;5113924;28;20040;-71
2021/07/07 02:14:23;;;;;;;7.43;3.38;;;13.80;99.90;;;;;;5114829;28;20471;-71
2021/07/07 02:16:49;;;;;;;4.10;2.95;;;13.80;99.90;;;;;;5114122;28;20035;-71
2021/07/07 02:19:14;;;;;;;4.60;2.92;;;13.70;99.90;;;;;;5113879;28;20119;-71
2021/07/07 02:21:40;;;;;;;5.45;3.47;;;13.70;99.90;;;;;;5113800;28;20042;-71
2021/07/07 02:24:07;;;;;;;4.93;3.17;;;13.70;99.90;;;;;;5114308;28;20071;-71
2021/07/07 02:26:33;;;;;;;6.10;2.92;;;13.70;99.90;;;;;;5113900;28;20089;-71
2021/07/07 02:28:59;;;;;;;6.25;2.80;;;13.70;99.90;;;;;;5112866;28;20040;-71
2021/07/07 02:31:24;;;;;;;4.93;2.58;;;13.70;99.90;;;;;;5113782;28;20078;-71
2021/07/07 02:33:50;;;;;;;8.30;2.83;;;13.70;99.90;;;;;;5113648;28;20154;-71
2021/07/07 02:36:16;;;;;;;5.88;2.80;;;13.70;99.90;;;;;;5114245;28;20086;-71
2021/07/07 02:38:42;;;;;;;8.65;3.65;;;13.60;99.90;;;;;;5113835;28;20046;-71
2021/07/07 02:41:08;;;;;;;6.63;2.83;;;13.60;99.90;;;;;;5113639;28;20479;-71
2021/07/07 02:43:36;;;;;;;4.95;2.50;;;13.60;99.90;;;;;;5113726;28;20048;-71
2021/07/07 02:46:02;;;;;;;5.38;2.55;;;13.60;99.90;;;;;;5114426;28;20039;-71
2021/07/07 02:48:28;;;;;;;4.50;2.97;;;13.70;99.90;;;;;;5113396;28;20031;-71
2021/07/07 02:50:54;;;;;;;6.10;2.60;;;13.70;99.90;;;;;;5113612;28;20043;-71
2021/07/07 02:53:20;;;;;;;5.13;2.50;;;13.60;99.90;;;;;;5112476;28;20036;-71
2021/07/07 02:55:46;;;;;;;5.78;2.72;;;13.60;99.90;;;;;;5113574;28;20089;-71
2021/07/07 02:58:12;;;;;;;5.90;2.50;;;13.60;99.90;;;;;;5113784;28;20088;-71
2021/07/07 03:00:42;;;;;;;9.15;2.75;;;13.60;99.90;;;;;;5113313;28;20042;-71
2021/07/07 03:03:09;;;;;;;8.07;2.95;;;13.60;99.90;;;;;;5113454;28;20043;-71
2021/07/07 03:05:38;;;;;;;7.03;2.75;;;13.60;99.90;;;;;;5113429;28;20036;-71
2021/07/07 03:08:04;;;;;;;4.57;2.50;;;13.50;99.90;;;;;;5113684;28;20369;-71
2021/07/07 03:10:30;;;;;;;6.15;2.90;;;13.50;99.90;;;;;;5111901;28;20043;-71
2021/07/07 03:12:56;;;;;;;6.95;2.70;;;13.50;99.90;;;;;;5113494;28;20036;-71
2021/07/07 03:15:23;;;;;;;4.97;2.60;;;13.50;99.90;;;;;;5112383;28;20476;-71
2021/07/07 03:17:49;;;;;;;8.00;3.30;;;13.50;99.90;;;;;;5113534;28;20036;-71
2021/07/07 03:20:16;;;;;;;5.82;3.13;;;13.40;99.90;;;;;;5113196;28;20032;-71
2021/07/07 03:22:42;;;;;;;4.63;2.85;;;13.40;99.90;;;;;;5113540;28;20402;-71
2021/07/07 03:25:08;;;;;;;5.82;3.15;;;13.40;99.90;;;;;;5113469;28;20043;-71
2021/07/07 03:27:34;;;;;;;5.75;2.92;;;13.40;99.90;;;;;;5113338;28;20047;-71
2021/07/07 03:30:00;;;;;;;4.95;2.83;;;13.40;99.90;;;;;;5111715;28;20028;-71
2021/07/07 03:32:26;;;;;;;6.75;2.85;;;13.40;99.90;;;;;;5113498;28;20032;-71
2021/07/07 03:34:51;;;;;;;9.85;3.67;;;13.40;99.90;;;;;;5113375;28;20168;-71
2021/07/07 03:37:17;;;;;;;4.50;3.10;;;13.40;99.90;;;;;;5113584;28;20040;-71
2021/07/07 03:39:43;;;;;;;7.03;3.50;;;13.40;99.90;;;;;;5113056;28;20038;-71
2021/07/07 03:42:08;;;;;;;7.05;3.30;;;13.40;99.90;;;;;;5113489;28;20049;-71
2021/07/07 03:44:34;;;;;;;5.95;3.33;;;13.50;99.90;;;;;;5114250;28;20123;-71
2021/07/07 03:47:00;;;;;;;5.93;2.83;;;13.50;99.90;;;;;;5116771;28;20038;-71
2021/07/07 03:49:26;;;;;;;5.97;2.97;;;13.40;99.90;;;;;;5116745;28;20035;-71
2021/07/07 03:51:52;;;;;;;7.28;3.22;;;13.40;99.90;;;;;;5116822;27;20067;-71
2021/07/07 03:54:17;;;;;;;9.50;4.10;;;13.40;99.90;;;;;;5117158;28;20434;-71
2021/07/07 03:56:43;;;;;;;7.88;3.80;;;13.40;99.90;;;;;;5117215;28;20047;-71
2021/07/07 03:59:09;;;;;;;7.78;4.00;;;13.40;99.90;;;;;;5116179;28;20384;-71
2021/07/07 04:01:34;;;;;;;7.75;3.47;;;13.40;99.90;;;;;;5116553;28;20424;-71
2021/07/07 04:04:00;;;;;;;4.88;3.30;;;13.50;99.90;;;;;;5116420;28;20380;-71
2021/07/07 04:06:26;;;;;;;6.55;3.65;;;13.50;99.90;;;;;;5116800;28;20456;-71
2021/07/07 04:08:52;;;;;;;5.35;3.50;;;13.50;99.90;;;;;;5116476;28;20110;-71
2021/07/07 04:11:17;;;;;;;5.80;3.83;;;13.50;99.90;;;;;;5116301;28;20039;-71
2021/07/07 04:13:43;;;;;;;5.93;3.42;;;13.50;99.90;;;;;;5116339;28;20039;-71
2021/07/07 04:16:09;;;;;;;5.57;3.75;;;13.50;99.90;;;;;;5116311;28;20044;-71
2021/07/07 04:18:35;;;;;;;6.32;3.47;;;13.50;99.90;;;;;;5116302;28;20036;-71
2021/07/07 04:21:01;;;;;;;5.28;3.58;;;13.50;99.90;;;;;;5115918;28;20035;-71
2021/07/07 04:23:26;;;;;;;5.20;3.67;;;13.50;99.90;;;;;;5116631;28;20451;-71
2021/07/07 04:25:52;;;;;;;7.40;3.53;;;13.60;99.90;;;;;;5116471;28;20450;-72
2021/07/07 04:28:18;;;;;;;4.90;3.38;;;13.60;99.90;;;;;;5116683;28;20039;-71
2021/07/07 04:30:43;;;;;;;6.53;3.60;;;13.70;99.90;;;;;;5115994;28;20118;-71
2021/07/07 04:33:10;;;;;;;5.80;3.70;;;13.80;99.90;;;;;;5116260;28;20061;-72
2021/07/07 04:35:36;;;;;;;5.50;3.38;;;13.80;99.90;;;;;;5115899;28;20468;-71
2021/07/07 04:38:02;;;;;;;5.75;3.40;;;13.80;99.90;;;;;;5116370;28;20391;-71
2021/07/07 04:40:28;;;;;;;7.43;3.97;;;13.80;99.90;;;;;;5115689;28;20479;-71
2021/07/07 04:42:54;;;;;;;5.65;3.75;;;13.90;99.90;;;;;;5115720;27;20051;-71
2021/07/07 04:45:20;;;;;;;7.57;4.00;;;13.90;99.90;;;;;;5115831;28;20038;-71
2021/07/07 04:47:46;;;;;;;7.57;4.00;;;14.00;99.90;;;;;;5115893;28;20117;-71
2021/07/07 04:50:14;;;;;;;12.15;4.35;;;14.10;99.90;;;;;;5115329;28;20044;-70
2021/07/07 04:52:41;;;;;;;11.27;4.78;;;14.30;99.90;;;;;;5115719;28;20043;-71
2021/07/07 04:55:09;;;;;;;5.97;3.67;;;14.40;99.90;;;;;;5115985;28;20036;-71
2021/07/07 04:57:41;;;;;;;7.35;3.75;;;14.60;99.90;;;;;;5115220;28;20391;-71
2021/07/07 05:00:09;;;;;;;8.63;4.40;;;14.80;99.90;;;;;;5115195;28;20585;-71
2021/07/07 05:02:34;;;;;;;8.32;3.92;;;14.90;99.90;;;;;;5115262;28;20039;-71
2021/07/07 05:05:00;;;;;;;13.95;4.85;;;15.10;99.90;;;;;;5115502;28;20034;-71
2021/07/07 05:07:26;;;;;;;6.28;3.72;;;15.30;99.90;;;;;;5115262;28;20461;-71
2021/07/07 05:09:51;;;;;;;7.57;3.35;;;15.50;99.90;;;;;;5115368;28;20040;-70
2021/07/07 05:12:17;;;;;;;8.93;3.95;;;15.60;99.90;;;;;;5115034;28;20035;-71
2021/07/07 05:14:43;;;;;;;7.57;3.58;;;15.40;99.90;;;;;;5115343;28;20028;-71
2021/07/07 05:17:09;;;;;;;11.07;4.43;;;15.30;99.90;;;;;;5115433;28;20119;-71
2021/07/07 05:19:35;;;;;;;6.32;4.05;;;15.50;99.90;;;;;;5114941;28;20452;-71
2021/07/07 05:22:01;;;;;;;4.32;3.22;;;15.80;99.90;;;;;;5114749;28;20040;-71
2021/07/07 05:24:26;;;;;;;7.95;3.83;;;16.10;99.90;;;;;;5114817;28;20067;-71
2021/07/07 05:26:52;;;;;;;9.23;3.90;;;16.40;99.90;;;;;;5114789;28;20036;-71
2021/07/07 05:29:18;;;;;;;5.13;3.55;;;16.80;99.90;;;;;;5114637;28;20036;-71
2021/07/07 05:31:43;;;;;;;6.05;4.05;;;17.00;99.90;;;;;;5115203;28;20069;-71
2021/07/07 05:34:09;;;;;;;8.73;3.40;;;17.20;99.90;;;;;;5114814;28;20074;-72
2021/07/07 05:36:35;;;;;;;7.65;3.67;;;17.60;99.90;;;;;;5114637;28;20518;-71
2021/07/07 05:39:01;;;;;;;8.98;3.38;;;17.90;99.90;;;;;;5114194;28;20055;-71
2021/07/07 05:41:27;;;;;;;7.95;2.97;;;17.90;99.90;;;;;;5114364;28;20046;-72
2021/07/07 05:43:54;;;;;;;8.23;3.10;;;18.20;99.90;;;;;;5115139;28;20043;-71
2021/07/07 05:46:20;;;;;;;5.18;2.60;;;18.30;99.90;;;;;;5114686;28;20050;-71
2021/07/07 05:48:47;;;;;;;5.15;2.80;;;18.50;99.90;;;;;;5114262;28;20063;-72
2021/07/07 05:51:14;;;;;;;6.93;2.60;;;18.70;99.90;;;;;;5113323;28;20047;-71
2021/07/07 05:53:40;;;;;;;6.85;2.85;;;18.90;99.90;;;;;;5115171;28;20398;-71
2021/07/07 05:56:06;;;;;;;7.38;3.10;;;19.00;99.90;;;;;;5114402;28;20108;-71
2021/07/07 05:58:31;;;;;;;8.93;2.90;;;19.30;99.90;;;;;;5114479;27;20088;-71
2021/07/07 06:00:57;;;;;;;6.35;2.55;;;19.50;99.90;;;;;;5114413;28;20122;-71
2021/07/07 06:03:23;;;;;;;7.80;2.78;;;19.70;99.90;;;;;;5114838;28;20070;-71
2021/07/07 06:05:49;;;;;;;3.55;2.30;;;19.70;99.90;;;;;;5114153;28;20032;-71
2021/07/07 06:08:14;;;;;;;3.92;2.00;;;20.00;99.90;;;;;;5114006;28;20036;-71
2021/07/07 06:10:42;;;;;;;4.43;2.13;;;20.10;99.90;;;;;;5113892;28;20039;-71
2021/07/07 06:13:07;;;;;;;4.32;2.05;;;20.10;99.90;;;;;;5114244;28;20039;-71
2021/07/07 06:15:36;;;;;;;4.63;2.15;;;20.00;99.90;;;;;;5113306;28;20027;-71
2021/07/07 06:18:04;;;;;;;5.47;2.13;;;19.90;99.90;;;;;;5113980;28;20040;-71
2021/07/07 06:20:30;;;;;;;3.60;2.00;;;19.50;99.90;;;;;;5113490;28;20479;-71
2021/07/07 06:22:56;;;;;;;3.83;2.03;;;19.40;99.90;;;;;;5113930;28;20042;-71
2021/07/07 06:25:22;;;;;;;4.90;1.80;;;19.10;99.90;;;;;;5114273;28;20046;-72
2021/07/07 06:27:48;;;;;;;3.42;1.83;;;18.90;99.90;;;;;;5113733;28;20118;-71
2021/07/07 06:30:19;;;;;;;4.95;2.17;;;19.00;99.90;;;;;;5113720;28;20070;-71
2021/07/07 06:32:46;;;;;;;4.47;1.90;;;19.10;99.90;;;;;;5113658;28;20035;-71
2021/07/07 06:35:12;;;;;;;5.57;1.70;;;19.30;99.90;;;;;;5113820;28;20126;-71
2021/07/07 06:37:38;;;;;;;5.30;1.73;;;19.30;99.90;;;;;;5113007;28;20036;-71
2021/07/07 06:40:05;;;;;;;4.95;1.83;;;19.10;99.90;;;;;;5113386;28;20384;-71
2021/07/07 06:42:31;;;;;;;5.20;2.15;;;18.90;99.90;;;;;;5113790;28;20113;-71
2021/07/07 06:44:58;;;;;;;7.20;2.60;;;18.80;99.90;;;;;;5114067;28;20040;-71
2021/07/07 06:47:23;;;;;;;4.47;1.80;;;18.70;99.90;;;;;;5114211;28;20035;-71
2021/07/07 06:49:49;;;;;;;4.90;2.20;;;18.70;99.90;;;;;;5113291;28;20476;-71
2021/07/07 06:52:16;;;;;;;5.75;2.08;;;18.50;99.90;;;;;;5113622;28;20047;-71
2021/07/07 06:54:42;;;;;;;7.10;2.22;;;18.40;99.90;;;;;;5113696;28;20042;-71
2021/07/07 06:57:09;;;;;;;4.47;2.38;;;18.40;99.90;;;;;;5113586;28;20042;-71
2021/07/07 06:59:36;;;;;;;6.70;2.47;;;18.20;99.90;;;;;;5113408;28;20449;-71
2021/07/07 07:02:03;;;;;;;3.88;2.08;;;18.20;99.90;;;;;;5114126;28;20089;-73
2021/07/07 07:04:32;;;;;;;5.78;2.17;;;18.20;99.90;;;;;;5114162;28;20039;-70
2021/07/07 07:06:59;;;;;;;5.47;1.75;;;18.20;99.90;;;;;;5113790;28;20105;-69
2021/07/07 07:09:25;;;;;;;4.50;2.40;;;18.20;99.90;;;;;;5113287;28;20042;-70
2021/07/07 07:11:50;;;;;;;7.05;2.17;;;18.20;99.90;;;;;;5113334;28;20410;-70
2021/07/07 07:14:16;;;;;;;4.07;1.85;;;18.30;99.90;;;;;;5113555;28;20046;-70
2021/07/07 07:16:43;;;;;;;6.03;2.38;;;18.40;99.90;;;;;;5113798;28;20039;-70
2021/07/07 07:19:10;;;;;;;4.47;2.30;;;18.40;99.90;;;;;;5114996;28;20464;-71
2021/07/07 07:21:36;;;;;;;7.22;2.42;;;18.50;99.90;;;;;;5117042;28;20044;-70
2021/07/07 07:24:02;;;;;;;3.75;1.75;;;18.70;99.90;;;;;;5117255;28;20475;-71
2021/07/07 07:26:28;;;;;;;2.47;1.67;;;18.80;99.90;;;;;;5117498;27;20036;-70
2021/07/07 07:28:55;;;;;;;7.32;2.10;;;19.20;99.90;;;;;;5116773;28;20039;-71
2021/07/07 07:31:21;;;;;;;3.35;1.77;;;19.60;99.90;;;;;;5117136;28;20114;-70
2021/07/07 07:33:49;;;;;;;4.95;2.15;;;20.10;99.90;;;;;;5117037;28;20046;-71
2021/07/07 07:36:17;;;;;;;12.38;2.30;;;20.60;99.90;;;;;;5117140;28;20531;-71
2021/07/07 07:38:59;;;;;;;4.40;2.00;;;20.70;99.90;;;;;;5117435;28;20517;-71
2021/07/07 07:41:30;;;;;;;5.63;2.17;;;20.60;99.90;;;;;;5115993;28;20055;-71
2021/07/07 07:43:56;;;;;;;4.43;2.00;;;20.30;99.90;;;;;;5117622;28;20086;-70
2021/07/07 07:46:28;;;;;;;4.95;1.95;;;20.20;99.90;;;;;;5116740;28;20477;-71
2021/07/07 07:48:54;;;;;;;4.25;2.40;;;20.20;99.90;;;;;;5116940;28;20115;-71
2021/07/07 07:51:20;;;;;;;6.05;2.15;;;20.20;99.90;;;;;;5115994;28;20092;-71
2021/07/07 07:53:48;;;;;;;7.25;2.22;;;20.10;99.90;;;;;;5116612;28;20040;-71
2021/07/07 07:56:17;;;;;;;4.18;2.05;;;20.00;99.90;;;;;;5117201;28;20031;-71
2021/07/07 07:58:42;;;;;;;6.25;1.83;;;20.20;99.90;;;;;;5116347;28;20047;-71
2021/07/07 08:01:10;;;;;;;3.72;1.70;;;20.30;99.90;;;;;;5116641;28;20096;-71
2021/07/07 08:03:36;;;;;;;6.82;2.58;;;20.40;99.90;;;;;;5116086;28;20036;-71
2021/07/07 08:06:02;;;;;;;4.25;2.00;;;20.40;99.90;;;;;;5116694;28;20542;-70
2021/07/07 08:08:28;;;;;;;5.82;2.20;;;20.50;99.90;;;;;;5116346;28;20040;-71
2021/07/07 08:10:53;;;;;;;3.38;1.60;;;20.60;99.90;;;;;;5116685;28;20066;-71
2021/07/07 08:13:19;;;;;;;5.03;2.05;;;20.50;99.90;;;;;;5116252;28;20035;-70
2021/07/07 08:15:45;;;;;;;6.13;2.10;;;20.40;99.90;;;;;;5116427;28;20035;-73
2021/07/07 08:18:11;;;;;;;6.95;2.10;;;20.40;99.90;;;;;;5116430;28;20430;-72
2021/07/07 08:20:38;;;;;;;6.97;2.35;;;20.40;99.90;;;;;;5115708;28;20047;-71
2021/07/07 08:23:04;;;;;;;4.05;1.83;;;20.30;99.90;;;;;;5116341;28;20043;-70
2021/07/07 08:25:30;;;;;;;3.08;1.58;;;20.30;99.90;;;;;;5116185;28;20035;-71
2021/07/07 08:27:56;;;;;;;5.57;2.20;;;20.30;99.90;;;;;;5115731;28;20113;-70
2021/07/07 08:30:22;;;;;;;6.57;2.70;;;20.20;99.90;;;;;;5114794;28;20039;-70
2021/07/07 08:32:48;;;;;;;4.63;1.85;;;20.20;99.90;;;;;;5116135;28;20035;-71
2021/07/07 08:35:14;;;;;;;5.00;2.40;;;20.30;99.90;;;;;;5116094;28;20046;-71
2021/07/07 08:37:41;;;;;;;6.97;2.13;;;20.20;99.90;;;;;;5115825;28;20053;-71
2021/07/07 08:40:08;;;;;;;6.43;2.30;;;20.20;99.90;;;;;;5115243;28;20040;-71
2021/07/07 08:42:36;;;;;;;7.03;2.00;;;20.30;99.90;;;;;;5115538;28;20032;-71
2021/07/07 08:45:08;;;;;;;4.20;2.00;;;20.30;99.90;;;;;;5116008;28;20063;-70
2021/07/07 08:47:40;;;;;;;7.78;2.78;;;20.40;99.90;;;;;;5115844;28;20043;-70
2021/07/07 08:50:17;;;;;;;6.85;2.72;;;20.50;99.90;;;;;;5115453;28;20066;-71
2021/07/07 08:52:44;;;;;;;4.68;2.30;;;20.50;99.90;;;;;;5115391;28;20119;-70
2021/07/07 08:55:14;;;;;;;10.23;2.55;;;20.80;99.90;;;;;;5115728;28;20122;-69
2021/07/07 08:57:42;;;;;;;3.65;2.50;;;21.20;99.90;;;;;;5115734;28;20035;-70
2021/07/07 09:00:16;;;;;;;4.35;1.90;;;21.80;99.80;;;;;;5114037;28;20039;-69
2021/07/07 09:02:51;;;;;;;10.38;2.42;;;22.30;97.70;;;;;;5115412;28;20044;-69
2021/07/07 09:05:18;;;;;;;5.70;1.80;;;22.80;96.90;;;;;;5114081;28;20032;-69
2021/07/07 09:07:44;;;;;;;6.13;2.13;;;23.20;96.40;;;;;;5114430;28;20035;-69
2021/07/07 09:10:14;;;;;;;6.45;2.08;;;23.60;96.20;;;;;;5114800;28;20046;-70
2021/07/07 09:13:07;;;;;;;5.53;2.00;;;23.70;93.90;;;;;;5114201;28;20039;-70
2021/07/07 09:15:33;;;;;;;6.40;2.55;;;23.90;93.90;;;;;;5114094;28;20096;-71
2021/07/07 09:17:59;;;;;;;8.43;1.95;;;23.90;92.20;;;;;;5114984;28;20039;-70
2021/07/07 09:20:36;;;;;;;6.40;3.13;;;24.20;91.60;;;;;;5114630;28;20475;-71
2021/07/07 09:23:25;;;;;;;6.35;2.10;;;24.30;90.60;;;;;;5115044;28;20059;-71
2021/07/07 09:26:30;;;;;;;5.32;1.55;;;24.40;90.30;;;;;;5114970;28;20027;-71
2021/07/07 09:29:39;;;;;;;7.40;2.05;;;24.70;89.70;;;;;;5113217;28;20077;-71
2021/07/07 09:32:28;;;;;;;4.53;1.92;;;24.90;90.50;;;;;;5114621;28;20114;-72
2021/07/07 09:35:04;;;;;;;4.65;1.65;;;24.50;90.20;;;;;;5114903;28;20051;-72
2021/07/07 09:37:47;;;;;;;5.57;1.80;;;24.30;88.10;;;;;;5115007;28;20047;-72
2021/07/07 09:40:14;;;;;;;5.72;2.40;;;24.50;88.50;;;;;;5114194;28;20046;-72
2021/07/07 09:42:41;;;;;;;6.53;2.40;;;24.70;90.60;;;;;;5114573;28;20053;-71
2021/07/07 09:45:11;;;;;;;5.40;1.92;;;24.60;88.90;;;;;;5114864;28;20467;-70
2021/07/07 09:47:38;;;;;;;5.78;1.90;;;24.50;91.40;;;;;;5114577;28;20467;-70
2021/07/07 09:50:05;;;;;;;6.68;1.77;;;24.50;90.60;;;;;;5114523;28;20051;-70
2021/07/07 09:52:52;;;;;;;7.80;2.30;;;24.80;89.30;;;;;;5114085;28;20438;-70
2021/07/07 09:55:18;;;;;;;6.90;2.05;;;25.00;90.00;;;;;;5114437;28;20054;-70
2021/07/07 09:57:44;;;;;;;5.63;2.00;;;24.70;87.30;;;;;;5114759;28;20479;-70
2021/07/07 10:00:21;;;;;;;5.90;2.20;;;24.80;86.40;;;;;;5114109;28;20035;-70
2021/07/07 10:02:50;;;;;;;8.70;2.22;;;24.90;89.20;;;;;;5114705;28;20046;-71
2021/07/07 10:05:39;;;;;;;4.15;1.92;;;24.90;89.80;;;;;;5113799;28;20395;-70
2021/07/07 10:08:25;;;;;;;4.90;1.95;;;25.00;85.20;;;;;;5114113;28;20137;-70
2021/07/07 10:10:57;;;;;;;5.00;1.80;;;25.10;87.30;;;;;;5114103;28;20066;-70
2021/07/07 10:13:24;;;;;;;5.43;1.75;;;25.20;83.80;;;;;;5114595;28;20375;-70
2021/07/07 10:16:09;;;;;;;9.15;1.83;;;25.20;85.20;;;;;;5113477;28;20036;-71
2021/07/07 10:18:55;;;;;;;7.25;2.03;;;25.00;85.60;;;;;;5113131;28;20074;-70
2021/07/07 10:21:23;;;;;;;2.72;1.20;;;25.00;88.30;;;;;;5114385;28;20036;-71
2021/07/07 10:23:51;;;;;;;5.10;1.70;;;24.90;86.00;;;;;;5114021;28;20040;-70
2021/07/07 10:26:18;;;;;;;5.43;1.95;;;24.60;83.50;;;;;;5114093;28;20537;-71
2021/07/07 10:28:44;;;;;;;4.90;1.85;;;24.30;81.40;;;;;;5113572;28;20043;-71
2021/07/07 10:31:10;;;;;;;3.92;1.55;;;24.10;83.40;;;;;;5113820;28;20089;-71
2021/07/07 10:33:37;;;;;;;8.32;1.90;;;24.10;83.70;;;;;;5113877;28;20032;-70
2021/07/07 10:36:23;;;;;;;7.28;2.33;;;23.80;87.00;;;;;;5113728;28;20040;-71
2021/07/07 10:38:57;;;;;;;6.57;2.15;;;23.80;87.70;;;;;;5113915;28;20127;-71
2021/07/07 10:41:41;;;;;;;7.40;2.13;;;23.70;90.50;;;;;;5114095;28;20078;-71
2021/07/07 10:44:23;;;;;;;6.47;2.10;;;23.70;87.40;;;;;;5114322;28;20043;-71
2021/07/07 10:47:00;;;;;;;7.22;2.08;;;23.80;89.60;;;;;;5113890;28;20063;-71
2021/07/07 10:49:30;;;;;;;6.35;2.03;;;23.70;86.70;;;;;;5106542;28;20039;-71
2021/07/07 10:51:58;;;;;;;7.65;2.22;;;23.60;84.70;;;;;;5093106;28;20056;-71
2021/07/07 10:54:30;;;;;;;7.90;2.28;;;23.50;87.80;;;;;;5095231;28;20480;-71
2021/07/07 10:56:57;;;;;;;8.68;1.90;;;23.50;90.90;;;;;;5097403;28;20491;-71
2021/07/07 10:59:42;;;;;;;5.53;2.25;;;23.30;90.20;;;;;;5097827;28;20457;-71
2021/07/07 11:02:25;;;;;;;6.72;1.90;;;23.40;90.30;;;;;;5098126;28;20036;-71
2021/07/07 11:05:02;;;;;;;6.15;1.98;;;23.60;90.50;;;;;;5097701;28;20088;-71
2021/07/07 11:07:43;;;;;;;6.15;2.15;;;23.60;89.00;;;;;;5098075;28;20107;-71
2021/07/07 11:10:22;;;;;;;6.20;2.25;;;23.40;88.60;;;;;;5096701;28;20036;-71
2021/07/07 11:12:55;;;;;;;3.90;1.67;;;23.30;87.80;;;;;;5097225;28;20064;-71
2021/07/07 11:15:24;;;;;;;;;;;23.40;88.60;;;;;;5097414;28;20115;-71
2021/07/07 11:17:52;;;;;;;10.32;2.60;;;23.40;87.50;;;;;;5096134;28;20002;-70
2021/07/07 11:20:23;;;;;;;6.25;2.05;;;23.40;89.00;;;;;;5096292;28;20044;-71
2021/07/07 11:23:03;;;;;;;6.60;2.53;;;23.60;90.30;;;;;;5097343;28;20422;-71
2021/07/07 11:25:31;;;;;;;9.00;2.63;;;23.90;89.40;;;;;;5096974;28;20442;-71
2021/07/07 11:27:58;;;;;;;8.70;1.98;;;24.00;90.20;;;;;;5096852;28;20044;-71
2021/07/07 11:30:24;;;;;;;7.55;2.10;;;23.90;86.30;;;;;;5096616;28;20048;-71
2021/07/07 11:32:54;;;;;;;5.95;2.08;;;23.80;84.60;;;;;;5095739;28;20507;-71
2021/07/07 11:35:29;;;;;;;5.20;2.05;;;23.80;88.00;;;;;;5097192;28;20036;-70
2021/07/07 11:38:02;;;;;;;5.70;2.25;;;23.60;88.00;;;;;;5096725;28;20040;-70
2021/07/07 11:40:30;;;;;;;5.13;2.67;;;23.50;90.40;;;;;;5095998;28;20399;-71
2021/07/07 11:43:01;;;;;;;5.43;2.13;;;23.50;90.90;;;;;;5096195;28;20032;-71
2021/07/07 11:45:29;;;;;;;6.30;1.90;;;23.40;90.10;;;;;;5096112;28;20109;-71
2021/07/07 11:48:07;;;;;;;5.68;2.20;;;23.30;89.10;;;;;;5097077;28;20040;-71
2021/07/07 11:50:33;;;;;;;6.88;2.20;;;23.10;90.30;;;;;;5096111;28;20064;-71
2021/07/07 11:53:02;;;;;;;4.68;2.20;;;23.00;91.20;;;;;;5096080;28;20075;-71
2021/07/07 11:56:02;;;;;;;7.95;2.70;;;22.90;92.30;;;;;;5096167;28;20368;-71
2021/07/07 11:58:34;;;;;;;9.13;2.20;;;22.70;92.60;;;;;;5095587;28;20040;-71
2021/07/07 12:01:09;;;;;;;4.28;2.17;;;22.50;92.40;;;;;;5096137;28;20048;-70
2021/07/07 12:03:36;;;;;;;5.85;2.30;;;22.30;92.80;;;;;;5096654;28;20476;-70
2021/07/07 12:06:05;;;;;;;8.20;2.40;;;22.10;92.90;;;;;;5095113;28;20036;-70
2021/07/07 12:08:39;;;;;;;6.55;2.92;;;22.00;94.00;;;;;;5095488;28;20059;-71
2021/07/07 12:11:09;;;;;;;8.25;2.63;;;21.90;96.40;;;;;;5095715;28;20047;-70
2021/07/07 12:13:37;;;;;;;8.45;2.75;;;21.80;97.90;;;;;;5095955;28;20047;-70
2021/07/07 12:16:13;;;;;;;9.20;3.75;;;21.90;98.90;;;;;;5095710;28;20032;-72
2021/07/07 12:18:40;;;;;;;6.78;3.08;;;22.10;99.00;;;;;;5095994;28;20032;-70
2021/07/07 12:21:05;;;;;;;11.70;3.47;;;22.20;98.20;;;;;;5096056;28;20115;-70
2021/07/07 12:23:42;;;;;;;8.70;2.90;;;22.20;98.30;;;;;;5095626;28;20135;-71
2021/07/07 12:26:09;;;;;;;7.97;3.05;;;22.20;98.50;;;;;;5096241;28;20051;-71
2021/07/07 12:28:35;;;;;;;7.68;3.10;;;22.30;99.30;;;;;;5095291;28;20444;-71
2021/07/07 12:31:01;;;;;;;5.13;2.67;;;22.30;98.60;;;;;;5095462;28;20511;-71
2021/07/07 12:33:30;;;;;;;6.55;2.83;;;22.30;98.50;;;;;;5096083;28;20072;-70
2021/07/07 12:35:57;;;;;;;6.22;2.92;;;22.20;98.70;;;;;;5095513;28;20044;-70
2021/07/07 12:38:22;;;;;;;5.05;2.60;;;22.20;98.70;;;;;;5095608;28;20116;-72
2021/07/07 12:40:55;;;;;;;5.43;2.55;;;22.10;99.20;;;;;;5095172;28;20495;-71
2021/07/07 12:43:39;;;;;;;8.40;3.78;;;22.10;99.20;;;;;;5095890;28;20123;-71
2021/07/07 12:46:06;;;;;;;7.82;3.17;;;22.00;98.60;;;;;;5095753;28;20048;-71
2021/07/07 12:48:55;;;;;;;8.32;2.67;;;21.80;98.70;;;;;;5094883;28;20111;-72
2021/07/07 12:51:21;;;;;;;7.97;3.05;;;21.70;98.30;;;;;;5095563;28;20044;-70
2021/07/07 12:53:46;;;;;;;6.65;2.67;;;21.60;98.30;;;;;;5094242;28;20040;-71